Time;durP1;ratioP1;P1;durP2;ratioP2;P2;SDS_P1;SDS_P2;PMS_P1;PMS_P2;Temp;Humidity;BMP_temperature;BMP_pressure;BME280_temperature;BME280_humidity;BME280_pressure;Samples;Min_cycle;Max_cycle;Signal;HPM_P1;HPM_P2
2022/12/28 00:00:09;;;;;;;;;;;;;;;4.88;100.00;101489.53;5287608;28;19927;-66
2022/12/28 00:02:40;;;;;;;;;;;;;;;4.88;100.00;101490.38;5289893;28;19930;-66
2022/12/28 00:05:12;;;;;;;;;;;;;;;4.89;100.00;101489.47;5285173;28;19932;-66
2022/12/28 00:07:43;;;;;;;;;;;;;;;4.91;100.00;101486.78;5290944;28;19943;-66
2022/12/28 00:10:14;;;;;;;;;;;;;;;4.91;100.00;101474.41;5292181;28;20151;-66
2022/12/28 00:12:45;;;;;;;;;;;;;;;4.92;100.00;101477.91;5291948;28;19982;-66
2022/12/28 00:15:17;;;;;;;;;;;;;;;4.93;100.00;101460.25;5291342;28;20008;-66
2022/12/28 00:17:48;;;;;;;;;;;;;;;4.94;100.00;101448.75;5292486;28;19916;-66
2022/12/28 00:20:19;;;;;;;;;;;;;;;4.94;100.00;101439.03;5292747;28;19920;-66
2022/12/28 00:22:50;;;;;;;;;;;;;;;4.96;100.00;101438.97;5289364;28;19924;-66
2022/12/28 00:25:21;;;;;;;;;;;;;;;4.95;100.00;101416.06;5287568;28;20000;-66
2022/12/28 00:27:53;;;;;;;;;;;;;;;4.94;100.00;101402.00;5288703;28;20107;-66
2022/12/28 00:30:24;;;;;;;;;;;;;;;4.95;100.00;101400.22;5296960;28;19927;-66
2022/12/28 00:32:55;;;;;;;;;;;;;;;4.95;100.00;101408.16;5287237;28;20002;-66
2022/12/28 00:35:26;;;;;;;;;;;;;;;4.95;100.00;101400.22;5285313;28;19969;-66
2022/12/28 00:37:57;;;;;;;;;;;;;;;4.95;100.00;101395.81;5295844;28;19916;-66
2022/12/28 00:40:28;;;;;;;;;;;;;;;4.97;100.00;101398.38;5279198;28;20066;-66
2022/12/28 00:43:00;;;;;;;;;;;;;;;4.98;100.00;101405.38;5281095;28;19920;-66
2022/12/28 00:45:31;;;;;;;;;;;;;;;5.00;100.00;101401.72;5281088;28;20546;-66
2022/12/28 00:48:02;;;;;;;;;;;;;;;5.03;100.00;101387.53;5286593;28;19920;-66
2022/12/28 00:50:33;;;;;;;;;;;;;;;5.04;100.00;101384.81;5287263;28;19920;-66
2022/12/28 00:53:05;;;;;;;;;;;;;;;5.05;100.00;101380.38;5286626;28;19963;-66
2022/12/28 00:55:36;;;;;;;;;;;;;;;5.06;100.00;101363.56;5289547;28;20498;-66
2022/12/28 00:58:07;;;;;;;;;;;;;;;5.06;100.00;101360.94;5297025;28;19920;-66
2022/12/28 01:00:39;;;;;;;;;;;;;;;5.06;100.00;101363.56;5294057;28;19920;-66
2022/12/28 01:03:10;;;;;;;;;;;;;;;5.07;100.00;101360.00;5284463;28;20003;-66
2022/12/28 01:05:41;;;;;;;;;;;;;;;5.08;100.00;101353.78;5286931;28;19925;-66
2022/12/28 01:08:12;;;;;;;;;;;;;;;5.09;100.00;101348.44;5282851;28;19977;-66
2022/12/28 01:10:44;;;;;;;;;;;;;;;5.11;100.00;101358.94;5286037;28;19916;-66
2022/12/28 01:13:15;;;;;;;;;;;;;;;5.11;100.00;101345.72;5290640;28;19924;-66
2022/12/28 01:15:46;;;;;;;;;;;;;;;5.11;100.00;101349.22;5286771;28;20019;-66
2022/12/28 01:18:17;;;;;;;;;;;;;;;5.11;100.00;101341.28;5288119;28;20329;-66
2022/12/28 01:20:48;;;;;;;;;;;;;;;5.13;100.00;101333.28;5287265;28;19958;-66
2022/12/28 01:23:19;;;;;;;;;;;;;;;5.16;100.00;101329.63;5278898;28;20743;-66
2022/12/28 01:25:51;;;;;;;;;;;;;;;5.18;100.00;101333.94;5277091;28;21243;-66
2022/12/28 01:28:22;;;;;;;;;;;;;;;5.19;100.00;101332.16;5282654;28;19917;-66
2022/12/28 01:30:53;;;;;;;;;;;;;;;5.20;100.00;101315.34;5283594;28;19954;-66
2022/12/28 01:33:24;;;;;;;;;;;;;;;5.21;100.00;101307.31;5282698;28;19920;-66
2022/12/28 01:35:55;;;;;;;;;;;;;;;5.24;100.00;101309.84;5283191;28;19916;-66
2022/12/28 01:38:27;;;;;;;;;;;;;;;5.24;100.00;101306.34;5294027;28;19916;-66
2022/12/28 01:40:58;;;;;;;;;;;;;;;5.26;100.00;101312.41;5284524;28;20413;-66
2022/12/28 01:43:38;;;;;;;;;;;;;;;5.28;100.00;101307.91;5288318;28;19928;-66
2022/12/28 01:46:11;;;;;;;;;;;;;;;5.29;100.00;101299.91;5289316;28;19921;-66
2022/12/28 01:48:47;;;;;;;;;;;;;;;5.31;100.00;101299.81;5279515;28;19916;-66
2022/12/28 01:51:19;;;;;;;;;;;;;;;5.33;100.00;101292.69;5278367;28;20105;-66
2022/12/28 01:53:52;;;;;;;;;;;;;;;5.36;100.00;101283.72;5269125;28;19970;-66
2022/12/28 01:56:23;;;;;;;;;;;;;;;5.40;100.00;101285.31;5269572;28;20478;-66
2022/12/28 01:58:55;;;;;;;;;;;;;;;5.41;100.00;101273.81;5287806;28;19924;-66
2022/12/28 02:01:26;;;;;;;;;;;;;;;5.42;100.00;101275.50;5280400;28;19916;-66
2022/12/28 02:03:57;;;;;;;;;;;;;;;5.45;100.00;101267.44;5282308;28;20081;-65
2022/12/28 02:06:29;;;;;;;;;;;;;;;5.47;100.00;101254.97;5282827;28;20078;-66
2022/12/28 02:09:09;;;;;;;;;;;;;;;5.49;100.00;101246.00;5286594;28;20280;-66
2022/12/28 02:11:40;;;;;;;;;;;;;;;5.50;100.00;101245.09;5286089;28;19925;-66
2022/12/28 02:14:13;;;;;;;;;;;;;;;5.53;100.00;101238.78;5285234;28;19928;-66
2022/12/28 02:16:44;;;;;;;;;;;;;;;5.55;100.00;101241.38;5282590;28;20011;-66
2022/12/28 02:19:18;;;;;;;;;;;;;;;5.57;100.00;101228.91;5284589;28;19931;-66
2022/12/28 02:21:59;;;;;;;;;;;;;;;5.58;100.00;101217.38;5287176;28;19959;-66
2022/12/28 02:24:36;;;;;;;;;;;;;;;5.60;100.00;101204.91;5284525;28;19936;-66
2022/12/28 02:27:15;;;;;;;;;;;;;;;5.63;100.00;101212.72;5288809;28;19919;-66
2022/12/28 02:29:49;;;;;;;;;;;;;;;5.64;100.00;101204.72;5282511;28;19931;-66
2022/12/28 02:32:26;;;;;;;;;;;;;;;5.66;100.00;101197.53;5278333;28;19940;-66
2022/12/28 02:35:23;;;;;;;;;;;;;;;5.68;100.00;101193.03;5284755;28;19920;-66
2022/12/28 02:38:27;;;;;;;;;;;;;;;5.70;100.00;101177.06;5288927;28;20330;-66
2022/12/28 02:41:00;;;;;;;;;;;;;;;5.70;100.00;101177.91;5250548;28;19970;-66
2022/12/28 02:43:32;;;;;;;;;;;;;;;5.73;100.00;101182.19;5282251;28;20239;-66
2022/12/28 02:52:15;;;;;;;;;;;;;;;5.75;100.00;101182.13;5283387;28;20302;-66
2022/12/28 02:58:03;;;;;;;;;;;;;;;5.74;100.00;101167.19;5285056;28;19924;-66
2022/12/28 03:00:53;;;;;;;;;;;;;;;5.74;100.00;101162.75;5277830;28;19923;-66
2022/12/28 03:03:38;;;;;;;;;;;;;;;5.75;100.00;101150.34;5274251;28;19916;-66
2022/12/28 03:09:16;;;;;;;;;;;;;;;5.76;100.00;101160.00;5285561;28;19920;-66
2022/12/28 03:11:57;;;;;;;;;;;;;;;5.76;100.00;101154.72;5284524;28;19961;-66
2022/12/28 03:14:35;;;;;;;;;;;;;;;5.76;100.00;101141.47;5287091;28;19923;-66
2022/12/28 03:31:28;;;;;;;;;;;;;;;5.81;100.00;101132.38;5275360;28;20019;-67
2022/12/28 03:34:06;;;;;;;;;;;;;;;5.82;100.00;101135.88;5293032;28;19925;-66
2022/12/28 03:36:44;;;;;;;;;;;;;;;5.83;100.00;101125.19;5283299;28;19993;-66
2022/12/28 03:39:22;;;;;;;;;;;;;;;5.85;100.00;101133.91;5282577;28;19920;-66
2022/12/28 03:45:05;;;;;;;;;;;;;;;5.88;100.00;101130.25;5278579;28;20070;-66
2022/12/28 03:47:37;;;;;;;;;;;;;;;5.88;100.00;101128.44;5281005;28;20398;-66
2022/12/28 03:50:09;;;;;;;;;;;;;;;5.88;100.00;101117.84;5289366;28;19916;-66
2022/12/28 03:52:40;;;;;;;;;;;;;;;5.91;100.00;101114.22;5283367;28;19924;-66
2022/12/28 03:55:16;;;;;;;;;;;;;;;5.93;100.00;101101.75;5283495;28;19928;-66
2022/12/28 03:57:47;;;;;;;;;;;;;;;5.95;100.00;101102.53;5288060;28;19924;-66
2022/12/28 04:00:19;;;;;;;;;;;;;;;5.98;100.00;101105.00;5282769;28;20312;-66
2022/12/28 04:02:50;;;;;;;;;;;;;;;6.00;100.00;101104.94;5284693;28;20037;-66
2022/12/28 04:05:21;;;;;;;;;;;;;;;6.01;100.00;101088.13;5283969;28;20369;-66
2022/12/28 04:07:52;;;;;;;;;;;;;;;6.03;100.00;101102.13;5279406;28;19924;-66
2022/12/28 04:10:23;;;;;;;;;;;;;;;6.06;100.00;101089.59;5286565;28;19925;-66
2022/12/28 04:12:55;;;;;;;;;;;;;;;6.08;100.00;101097.47;5287041;28;19927;-66
2022/12/28 04:15:27;;;;;;;;;;;;;;;6.09;100.00;101094.69;5274157;28;19995;-66
2022/12/28 04:17:59;;;;;;;;;;;;;;;6.13;100.00;101095.38;5279219;28;19938;-66
2022/12/28 04:20:30;;;;;;;;;;;;;;;6.13;100.00;101086.59;5279808;28;19928;-66
2022/12/28 04:23:02;;;;;;;;;;;;;;;6.16;100.00;101105.84;5283111;28;20672;-66
2022/12/28 04:25:33;;;;;;;;;;;;;;;6.19;100.00;101092.41;5281648;28;19924;-66
2022/12/28 04:28:04;;;;;;;;;;;;;;;6.21;100.00;101084.38;5277875;28;20003;-66
2022/12/28 04:30:35;;;;;;;;;;;;;;;6.24;100.00;101097.47;5286968;28;19932;-66
2022/12/28 04:33:06;;;;;;;;;;;;;;;6.26;100.00;101095.59;5280362;28;19927;-66
2022/12/28 04:35:37;;;;;;;;;;;;;;;6.27;100.00;101092.88;5284213;28;19961;-66
2022/12/28 04:38:09;;;;;;;;;;;;;;;6.32;100.00;101095.25;5281522;28;19926;-66
2022/12/28 04:40:40;;;;;;;;;;;;;;;6.35;100.00;101087.16;5282712;28;20339;-66
2022/12/28 04:43:11;;;;;;;;;;;;;;;6.38;100.00;101083.47;5284912;28;20255;-66
2022/12/28 04:45:43;;;;;;;;;;;;;;;6.38;100.00;101081.66;5285805;28;20370;-66
2022/12/28 04:48:14;;;;;;;;;;;;;;;6.40;100.00;101087.72;5275287;28;20019;-66
2022/12/28 04:50:45;;;;;;;;;;;;;;;6.43;100.00;101076.97;5287863;28;20362;-66
2022/12/28 04:53:16;;;;;;;;;;;;;;;6.43;100.00;101079.63;5284522;28;19963;-66
2022/12/28 04:55:48;;;;;;;;;;;;;;;6.44;100.00;101075.16;5289416;28;19924;-66
2022/12/28 04:58:19;;;;;;;;;;;;;;;6.45;100.00;101077.75;5283571;28;20276;-66
2022/12/28 05:00:50;;;;;;;;;;;;;;;6.46;100.00;101083.88;5289637;28;20301;-66
2022/12/28 05:03:21;;;;;;;;;;;;;;;6.47;100.00;101073.19;5270571;28;19924;-66
2022/12/28 05:05:52;;;;;;;;;;;;;;;6.47;100.00;101075.84;5285251;28;19916;-66
2022/12/28 05:08:23;;;;;;;;;;;;;;;6.50;100.00;101077.50;5288721;28;20604;-66
2022/12/28 05:10:57;;;;;;;;;;;;;;;6.51;100.00;101070.41;5284794;28;20293;-66
2022/12/28 05:13:29;;;;;;;;;;;;;;;6.52;100.00;101074.75;5287464;28;20016;-66
2022/12/28 05:16:04;;;;;;;;;;;;;;;6.54;100.00;101072.84;5295508;28;20430;-66
2022/12/28 05:18:36;;;;;;;;;;;;;;;6.55;100.00;101079.88;5284837;28;20014;-66
2022/12/28 05:21:08;;;;;;;;;;;;;;;6.56;100.00;101079.81;5288867;28;19920;-66
2022/12/28 05:23:40;;;;;;;;;;;;;;;6.56;100.00;101078.91;5287368;28;19924;-66
2022/12/28 05:26:12;;;;;;;;;;;;;;;6.58;100.00;101069.13;5284987;28;19916;-66
2022/12/28 05:28:43;;;;;;;;;;;;;;;6.58;100.00;101075.25;5278355;28;19922;-66
2022/12/28 05:31:19;;;;;;;;;;;;;;;6.59;100.00;101062.84;5282785;28;19921;-66
2022/12/28 05:33:51;;;;;;;;;;;;;;;6.59;100.00;101066.34;5288627;28;20297;-67
2022/12/28 05:36:24;;;;;;;;;;;;;;;6.60;100.00;101073.38;5285481;28;19916;-66
2022/12/28 05:38:55;;;;;;;;;;;;;;;6.61;100.00;101067.13;5287634;28;19916;-66
2022/12/28 05:41:27;;;;;;;;;;;;;;;6.64;100.00;101071.41;5282728;28;19959;-66
2022/12/28 05:43:59;;;;;;;;;;;;;;;6.63;100.00;101070.53;5284897;28;20572;-66
2022/12/28 05:46:31;;;;;;;;;;;;;;;6.65;100.00;101067.81;5289649;28;19924;-66
2022/12/28 05:49:02;;;;;;;;;;;;;;;6.65;100.00;101068.69;5291021;28;19938;-66
2022/12/28 05:51:34;;;;;;;;;;;;;;;6.67;100.00;101068.56;5285624;28;19920;-66
2022/12/28 05:54:05;;;;;;;;;;;;;;;6.68;100.00;101078.25;5282288;28;19927;-66
2022/12/28 05:56:36;;;;;;;;;;;;;;;6.69;100.00;101064.03;5282489;28;19928;-66
2022/12/28 05:59:07;;;;;;;;;;;;;;;6.70;100.00;101068.41;5281512;28;19967;-66
2022/12/28 06:01:39;;;;;;;;;;;;;;;6.70;100.00;101060.47;5285419;28;20407;-66
2022/12/28 06:04:14;;;;;;;;;;;;;;;6.71;100.00;101054.19;5281853;28;19928;-66
2022/12/28 06:06:46;;;;;;;;;;;;;;;6.72;100.00;101057.72;5286354;28;20400;-66
2022/12/28 06:09:17;;;;;;;;;;;;;;;6.73;100.00;101049.69;5282043;28;20287;-66
2022/12/28 06:11:48;;;;;;;;;;;;;;;6.73;100.00;101041.72;5280174;28;19921;-66
2022/12/28 06:14:20;;;;;;;;;;;;;;;6.74;100.00;101045.22;5282290;28;20012;-66
2022/12/28 06:16:51;;;;;;;;;;;;;;;6.76;100.00;101038.88;5279994;28;19973;-66
2022/12/28 06:19:22;;;;;;;;;;;;;;;6.76;100.00;101030.94;5289080;28;19920;-66
2022/12/28 06:21:53;;;;;;;;;;;;;;;6.79;100.00;101022.81;5288742;28;19973;-66
2022/12/28 06:24:24;;;;;;;;;;;;;;;6.79;100.00;101006.91;5285236;28;19935;-66
2022/12/28 06:26:55;;;;;;;;;;;;;;;6.80;100.00;101026.31;5289162;28;20897;-66
2022/12/28 06:29:27;;;;;;;;;;;;;;;6.81;100.00;101014.78;5291874;28;19920;-66
2022/12/28 06:32:00;;;;;;;;;;;;;;;6.81;100.00;101020.06;5286736;28;19978;-66
2022/12/28 06:34:31;;;;;;;;;;;;;;;6.81;100.00;101012.97;5293698;28;19920;-65
2022/12/28 06:37:03;;;;;;;;;;;;;;;6.84;100.00;101006.63;5283003;28;20381;-66
2022/12/28 06:39:34;;;;;;;;;;;;;;;6.85;100.00;101008.34;5285039;28;19931;-66
2022/12/28 06:42:05;;;;;;;;;;;;;;;6.84;100.00;100999.50;5285924;28;19935;-65
2022/12/28 06:44:36;;;;;;;;;;;;;;;6.85;100.00;101006.53;5284702;28;20298;-66
2022/12/28 06:47:07;;;;;;;;;;;;;;;6.87;100.00;100999.34;5284074;28;20062;-65
2022/12/28 06:49:39;;;;;;;;;;;;;;;6.87;100.00;100994.03;5284916;28;20255;-66
2022/12/28 06:52:10;;;;;;;;;;;;;;;6.89;100.00;101001.06;5275180;28;19924;-66
2022/12/28 06:54:41;;;;;;;;;;;;;;;6.90;100.00;100993.00;5282378;28;19920;-66
2022/12/28 06:57:12;;;;;;;;;;;;;;;6.91;100.00;100996.53;5291043;28;19927;-66
2022/12/28 06:59:44;;;;;;;;;;;;;;;6.93;100.00;100997.28;5287433;28;20339;-65
2022/12/28 07:02:15;;;;;;;;;;;;;;;6.93;100.00;100997.28;5278839;28;19965;-65
2022/12/28 07:04:46;;;;;;;;;;;;;;;6.94;100.00;100991.91;5280429;28;19924;-66
2022/12/28 07:07:17;;;;;;;;;;;;;;;6.95;100.00;100998.88;5284321;28;19916;-66
2022/12/28 07:09:48;;;;;;;;;;;;;;;6.97;100.00;100997.00;5282641;28;19923;-66
2022/12/28 07:12:20;;;;;;;;;;;;;;;6.97;100.00;101002.31;5283566;28;20485;-66
2022/12/28 07:14:51;;;;;;;;;;;;;;;6.98;100.00;101003.16;5283242;28;19955;-66
2022/12/28 07:17:22;;;;;;;;;;;;;;;6.98;100.00;100989.88;5286179;28;19928;-66
2022/12/28 07:19:54;;;;;;;;;;;;;;;6.98;100.00;100990.75;5266887;28;20348;-66
2022/12/28 07:22:25;;;;;;;;;;;;;;;6.99;100.00;100994.25;5282045;28;20248;-66
2022/12/28 07:24:56;;;;;;;;;;;;;;;7.00;100.00;100998.59;5288790;28;19924;-66
2022/12/28 07:27:28;;;;;;;;;;;;;;;7.00;100.00;100995.94;5281908;28;19917;-66
2022/12/28 07:29:59;;;;;;;;;;;;;;;7.01;100.00;100987.06;5291388;28;19939;-66
2022/12/28 07:32:30;;;;;;;;;;;;;;;7.02;100.00;100986.13;5281103;28;19920;-66
2022/12/28 07:35:01;;;;;;;;;;;;;;;7.02;100.00;100988.78;5279544;28;19920;-66
2022/12/28 07:37:33;;;;;;;;;;;;;;;7.03;100.00;100988.66;5286585;28;19963;-66
2022/12/28 07:40:04;;;;;;;;;;;;;;;7.03;100.00;100985.19;5278194;28;19928;-66
2022/12/28 07:42:35;;;;;;;;;;;;;;;7.04;100.00;100990.41;5289438;28;19920;-66
2022/12/28 07:45:09;;;;;;;;;;;;;;;7.04;100.00;100971.81;5282288;28;20396;-66
2022/12/28 07:47:40;;;;;;;;;;;;;;;7.06;100.00;100982.34;5292074;28;19936;-66
2022/12/28 07:50:11;;;;;;;;;;;;;;;7.07;100.00;100990.19;5273909;28;19931;-66
2022/12/28 07:52:43;;;;;;;;;;;;;;;7.09;100.00;100997.22;5274063;28;19927;-66
2022/12/28 07:55:14;;;;;;;;;;;;;;;7.09;100.00;100999.88;5274169;28;20156;-66
2022/12/28 07:57:45;;;;;;;;;;;;;;;7.11;100.00;100998.81;5287244;28;19920;-66
2022/12/28 08:00:17;;;;;;;;;;;;;;;7.12;100.00;101002.34;5282962;28;20395;-66
2022/12/28 08:02:48;;;;;;;;;;;;;;;7.11;100.00;100996.19;5284980;28;20650;-66
2022/12/28 08:05:19;;;;;;;;;;;;;;;7.11;100.00;100996.19;5279217;28;20291;-66
2022/12/28 08:07:51;;;;;;;;;;;;;;;7.13;100.00;100991.63;5280753;28;19916;-66
2022/12/28 08:10:22;;;;;;;;;;;;;;;7.14;100.00;100985.38;5286876;28;20297;-66
2022/12/28 08:12:53;;;;;;;;;;;;;;;7.16;100.00;100993.25;5280143;28;20014;-67
2022/12/28 08:15:24;;;;;;;;;;;;;;;7.17;100.00;100994.94;5280665;28;19927;-66
2022/12/28 08:17:55;;;;;;;;;;;;;;;7.17;100.00;100992.31;5285027;28;20244;-67
2022/12/28 08:20:27;;;;;;;;;;;;;;;7.18;100.00;100994.88;5288619;28;19920;-66
2022/12/28 08:22:58;;;;;;;;;;;;;;;7.19;100.00;100987.75;5284146;28;20011;-67
2022/12/28 08:25:29;;;;;;;;;;;;;;;7.20;100.00;100985.00;5284622;28;19932;-66
2022/12/28 08:28:00;;;;;;;;;;;;;;;7.22;100.00;100982.28;5287008;28;19920;-67
2022/12/28 08:30:31;;;;;;;;;;;;;;;7.22;100.00;100985.78;5281334;28;19920;-66
2022/12/28 08:33:03;;;;;;;;;;;;;;;7.23;100.00;100990.16;5290989;28;19928;-67
2022/12/28 08:35:34;;;;;;;;;;;;;;;7.22;100.00;100975.16;5289407;28;20324;-66
2022/12/28 08:38:05;;;;;;;;;;;;;;;7.25;100.00;100976.78;5292848;28;19964;-67
2022/12/28 08:40:36;;;;;;;;;;;;;;;7.26;100.00;100978.47;5283812;28;19919;-66
2022/12/28 08:43:08;;;;;;;;;;;;;;;7.26;100.00;100974.03;5284382;28;19923;-66
2022/12/28 08:45:39;;;;;;;;;;;;;;;7.28;100.00;100978.41;5291039;28;19920;-66
2022/12/28 08:48:10;;;;;;;;;;;;;;;7.29;100.00;100974.78;5286127;28;19932;-67
2022/12/28 08:50:41;;;;;;;;;;;;;;;7.31;100.00;100981.72;5286284;28;20617;-66
2022/12/28 08:53:15;;;;;;;;;;;;;;;7.31;100.00;100979.06;5283215;28;20397;-67
2022/12/28 08:55:47;;;;;;;;;;;;;;;7.33;100.00;100981.63;5280531;28;20331;-66
2022/12/28 08:58:20;;;;;;;;;;;;;;;7.33;100.00;100982.47;5283400;28;21122;-66
2022/12/28 09:00:51;;;;;;;;;;;;;;;7.35;100.00;100969.13;5286380;28;19923;-67
2022/12/28 09:03:22;;;;;;;;;;;;;;;7.36;100.00;100984.09;5286835;28;19927;-66
2022/12/28 09:05:53;;;;;;;;;;;;;;;7.35;100.00;100985.91;5273069;28;19924;-67
2022/12/28 09:08:25;;;;;;;;;;;;;;;7.38;100.00;100987.50;5286377;28;19978;-66
2022/12/28 09:10:59;;;;;;;;;;;;;;;7.37;100.00;100981.34;5286118;28;19919;-67
2022/12/28 09:13:31;;;;;;;;;;;;;;;7.37;100.00;100983.16;5271264;28;19977;-67
2022/12/28 09:16:06;;;;;;;;;;;;;;;7.37;100.00;100973.38;5292887;28;20275;-66
2022/12/28 09:18:38;;;;;;;;;;;;;;;7.38;100.00;100984.84;5294599;28;20353;-67
2022/12/28 09:21:12;;;;;;;;;;;;;;;7.38;100.00;100983.06;5281303;28;20011;-67
2022/12/28 09:23:44;;;;;;;;;;;;;;;7.40;100.00;100980.28;5281210;28;19924;-66
2022/12/28 09:26:15;;;;;;;;;;;;;;;7.42;100.00;100978.41;5285314;28;19943;-67
2022/12/28 09:28:50;;;;;;;;;;;;;;;7.43;100.00;100985.44;5284214;28;20372;-66
2022/12/28 09:31:22;;;;;;;;;;;;;;;7.45;100.00;100986.19;5288725;28;19959;-67
2022/12/28 09:34:00;;;;;;;;;;;;;;;7.46;100.00;100977.28;5277895;28;19948;-67
2022/12/28 09:36:35;;;;;;;;;;;;;;;7.46;100.00;100983.44;5289824;28;19924;-66
2022/12/28 09:39:07;;;;;;;;;;;;;;;7.47;100.00;100982.47;5285640;28;19924;-67
2022/12/28 09:41:44;;;;;;;;;;;;;;;7.50;100.00;100989.41;5285862;28;19923;-66
2022/12/28 09:44:15;;;;;;;;;;;;;;;7.51;100.00;100983.16;5284099;28;19977;-66
2022/12/28 09:47:11;;;;;;;;;;;;;;;7.53;100.00;100988.38;5289778;28;19924;-67
2022/12/28 09:49:45;;;;;;;;;;;;;;;7.54;100.00;100980.31;5289146;28;19963;-67
2022/12/28 09:52:23;;;;;;;;;;;;;;;7.56;100.00;100974.91;5291628;28;19920;-67
2022/12/28 09:55:04;;;;;;;;;;;;;;;7.57;100.00;100976.59;5291382;28;20293;-67
2022/12/28 09:57:37;;;;;;;;;;;;;;;7.59;100.00;100977.38;5269658;28;19970;-67
2022/12/28 10:00:16;;;;;;;;;;;;;;;7.60;100.00;100976.44;5290873;28;19919;-66
2022/12/28 10:02:56;;;;;;;;;;;;;;;7.62;100.00;100977.19;5293118;28;19916;-66
